sensor_id;sensor_type;location;lat;lon;timestamp;temperature;humidity
32877;DHT22;19226;51.600;8.034;2024-01-30T00:02:34;9.50;99.90
32877;DHT22;19226;51.600;8.034;2024-01-30T00:05:19;9.40;99.90
32877;DHT22;19226;51.600;8.034;2024-01-30T00:08:03;9.40;99.90
32877;DHT22;19226;51.600;8.034;2024-01-30T00:10:48;9.30;99.90
32877;DHT22;19226;51.600;8.034;2024-01-30T00:13:33;9.30;99.90
32877;DHT22;19226;51.600;8.034;2024-01-30T00:16:24;9.30;99.90
32877;DHT22;19226;51.600;8.034;2024-01-30T00:19:09;9.30;99.90
32877;DHT22;19226;51.600;8.034;2024-01-30T00:21:54;9.40;99.90
32877;DHT22;19226;51.600;8.034;2024-01-30T00:24:38;9.40;99.90
32877;DHT22;19226;51.600;8.034;2024-01-30T00:27:23;9.30;99.90
32877;DHT22;19226;51.600;8.034;2024-01-30T00:30:08;9.30;99.90
32877;DHT22;19226;51.600;8.034;2024-01-30T00:32:53;9.30;99.90
32877;DHT22;19226;51.600;8.034;2024-01-30T00:35:38;9.30;99.90
32877;DHT22;19226;51.600;8.034;2024-01-30T00:38:22;9.20;99.90
32877;DHT22;19226;51.600;8.034;2024-01-30T00:41:08;9.30;99.90
32877;DHT22;19226;51.600;8.034;2024-01-30T00:43:53;9.20;99.90
32877;DHT22;19226;51.600;8.034;2024-01-30T00:46:38;9.20;99.90
32877;DHT22;19226;51.600;8.034;2024-01-30T00:49:22;9.20;99.90
32877;DHT22;19226;51.600;8.034;2024-01-30T00:52:07;9.20;99.90
32877;DHT22;19226;51.600;8.034;2024-01-30T00:54:51;9.20;99.90
32877;DHT22;19226;51.600;8.034;2024-01-30T00:57:36;9.10;99.90
32877;DHT22;19226;51.600;8.034;2024-01-30T01:00:21;9.10;99.90
32877;DHT22;19226;51.600;8.034;2024-01-30T01:03:06;9.10;99.90
32877;DHT22;19226;51.600;8.034;2024-01-30T01:05:51;9.10;99.90
32877;DHT22;19226;51.600;8.034;2024-01-30T01:08:35;9.10;99.90
32877;DHT22;19226;51.600;8.034;2024-01-30T01:11:20;9.10;99.90
32877;DHT22;19226;51.600;8.034;2024-01-30T01:14:05;9.10;99.90
32877;DHT22;19226;51.600;8.034;2024-01-30T01:16:49;9.10;99.90
32877;DHT22;19226;51.600;8.034;2024-01-30T01:19:34;9.10;99.90
32877;DHT22;19226;51.600;8.034;2024-01-30T01:22:18;9.20;99.90
32877;DHT22;19226;51.600;8.034;2024-01-30T01:25:03;9.20;99.90
32877;DHT22;19226;51.600;8.034;2024-01-30T01:27:48;9.20;99.90
32877;DHT22;19226;51.600;8.034;2024-01-30T01:30:36;9.20;99.90
32877;DHT22;19226;51.600;8.034;2024-01-30T01:33:20;9.20;99.90
32877;DHT22;19226;51.600;8.034;2024-01-30T01:36:05;9.20;99.90
32877;DHT22;19226;51.600;8.034;2024-01-30T01:38:52;9.20;99.90
32877;DHT22;19226;51.600;8.034;2024-01-30T01:41:36;9.10;99.90
32877;DHT22;19226;51.600;8.034;2024-01-30T01:44:21;9.20;99.90
32877;DHT22;19226;51.600;8.034;2024-01-30T01:47:06;9.20;99.90
32877;DHT22;19226;51.600;8.034;2024-01-30T01:49:51;9.10;99.90
32877;DHT22;19226;51.600;8.034;2024-01-30T01:52:36;9.20;99.90
32877;DHT22;19226;51.600;8.034;2024-01-30T01:55:21;9.10;99.90
32877;DHT22;19226;51.600;8.034;2024-01-30T01:58:09;9.20;99.90
32877;DHT22;19226;51.600;8.034;2024-01-30T02:00:53;9.20;99.90
32877;DHT22;19226;51.600;8.034;2024-01-30T02:03:38;9.10;99.90
32877;DHT22;19226;51.600;8.034;2024-01-30T02:06:22;9.20;99.90
32877;DHT22;19226;51.600;8.034;2024-01-30T02:09:07;9.20;99.90
32877;DHT22;19226;51.600;8.034;2024-01-30T02:11:53;9.10;99.90
32877;DHT22;19226;51.600;8.034;2024-01-30T02:14:46;9.20;99.90
32877;DHT22;19226;51.600;8.034;2024-01-30T02:17:33;9.10;99.90
32877;DHT22;19226;51.600;8.034;2024-01-30T02:20:19;9.20;99.90
32877;DHT22;19226;51.600;8.034;2024-01-30T02:23:04;9.20;99.90
32877;DHT22;19226;51.600;8.034;2024-01-30T02:25:49;9.10;99.90
32877;DHT22;19226;51.600;8.034;2024-01-30T02:28:34;9.10;99.90
32877;DHT22;19226;51.600;8.034;2024-01-30T02:31:18;9.10;99.90
32877;DHT22;19226;51.600;8.034;2024-01-30T02:34:03;9.10;99.90
32877;DHT22;19226;51.600;8.034;2024-01-30T02:36:47;9.10;99.90
32877;DHT22;19226;51.600;8.034;2024-01-30T02:39:32;9.10;99.90
32877;DHT22;19226;51.600;8.034;2024-01-30T02:42:16;9.10;99.90
32877;DHT22;19226;51.600;8.034;2024-01-30T02:45:02;9.10;99.90
32877;DHT22;19226;51.600;8.034;2024-01-30T02:47:47;9.10;99.90
32877;DHT22;19226;51.600;8.034;2024-01-30T02:50:31;9.10;99.90
32877;DHT22;19226;51.600;8.034;2024-01-30T02:53:16;9.10;99.90
32877;DHT22;19226;51.600;8.034;2024-01-30T02:56:00;9.10;99.90
32877;DHT22;19226;51.600;8.034;2024-01-30T02:58:44;9.10;99.90
32877;DHT22;19226;51.600;8.034;2024-01-30T03:01:29;9.10;99.90
32877;DHT22;19226;51.600;8.034;2024-01-30T03:04:14;9.10;99.90
32877;DHT22;19226;51.600;8.034;2024-01-30T03:06:59;9.10;99.90
32877;DHT22;19226;51.600;8.034;2024-01-30T03:09:46;9.10;99.90
32877;DHT22;19226;51.600;8.034;2024-01-30T03:12:33;9.10;99.90
32877;DHT22;19226;51.600;8.034;2024-01-30T03:15:18;9.10;99.90
32877;DHT22;19226;51.600;8.034;2024-01-30T03:18:02;9.10;99.90
32877;DHT22;19226;51.600;8.034;2024-01-30T03:20:50;9.10;99.90
32877;DHT22;19226;51.600;8.034;2024-01-30T03:23:34;9.10;99.90
32877;DHT22;19226;51.600;8.034;2024-01-30T03:26:19;9.10;99.90
32877;DHT22;19226;51.600;8.034;2024-01-30T03:29:03;9.00;99.90
32877;DHT22;19226;51.600;8.034;2024-01-30T03:31:48;9.00;99.90
32877;DHT22;19226;51.600;8.034;2024-01-30T03:34:33;9.10;99.90
32877;DHT22;19226;51.600;8.034;2024-01-30T03:37:17;9.10;99.90
32877;DHT22;19226;51.600;8.034;2024-01-30T03:40:03;9.10;99.90
32877;DHT22;19226;51.600;8.034;2024-01-30T03:42:48;9.10;99.90
32877;DHT22;19226;51.600;8.034;2024-01-30T03:45:32;9.10;99.90
32877;DHT22;19226;51.600;8.034;2024-01-30T03:48:17;9.10;99.90
32877;DHT22;19226;51.600;8.034;2024-01-30T03:51:01;9.10;99.90
32877;DHT22;19226;51.600;8.034;2024-01-30T03:53:46;9.10;99.90
32877;DHT22;19226;51.600;8.034;2024-01-30T03:56:30;9.10;99.90
32877;DHT22;19226;51.600;8.034;2024-01-30T03:59:15;9.10;99.90
32877;DHT22;19226;51.600;8.034;2024-01-30T04:02:03;9.10;99.90
32877;DHT22;19226;51.600;8.034;2024-01-30T04:04:48;9.10;99.90
32877;DHT22;19226;51.600;8.034;2024-01-30T04:07:32;9.10;99.90
32877;DHT22;19226;51.600;8.034;2024-01-30T04:10:17;9.10;99.90
32877;DHT22;19226;51.600;8.034;2024-01-30T04:13:02;9.10;99.90
32877;DHT22;19226;51.600;8.034;2024-01-30T04:15:46;9.10;99.90
32877;DHT22;19226;51.600;8.034;2024-01-30T04:18:31;9.10;99.90
32877;DHT22;19226;51.600;8.034;2024-01-30T04:21:16;9.10;99.90
32877;DHT22;19226;51.600;8.034;2024-01-30T04:24:01;9.10;99.90
32877;DHT22;19226;51.600;8.034;2024-01-30T04:26:45;9.10;99.90
32877;DHT22;19226;51.600;8.034;2024-01-30T04:29:29;9.20;99.90
32877;DHT22;19226;51.600;8.034;2024-01-30T04:32:14;9.20;99.90
32877;DHT22;19226;51.600;8.034;2024-01-30T04:34:59;9.20;99.90
32877;DHT22;19226;51.600;8.034;2024-01-30T04:38:02;9.20;99.90
32877;DHT22;19226;51.600;8.034;2024-01-30T04:40:46;9.10;99.90
32877;DHT22;19226;51.600;8.034;2024-01-30T04:43:31;9.10;99.90
32877;DHT22;19226;51.600;8.034;2024-01-30T04:46:15;9.10;99.90
32877;DHT22;19226;51.600;8.034;2024-01-30T04:48:59;9.10;99.90
32877;DHT22;19226;51.600;8.034;2024-01-30T04:51:44;9.10;99.90
32877;DHT22;19226;51.600;8.034;2024-01-30T04:54:28;9.10;99.90
32877;DHT22;19226;51.600;8.034;2024-01-30T04:57:13;9.10;99.90
32877;DHT22;19226;51.600;8.034;2024-01-30T04:59:57;9.20;99.90
32877;DHT22;19226;51.600;8.034;2024-01-30T05:02:42;9.20;99.90
32877;DHT22;19226;51.600;8.034;2024-01-30T05:05:26;9.10;99.90
32877;DHT22;19226;51.600;8.034;2024-01-30T05:08:11;9.10;99.90
32877;DHT22;19226;51.600;8.034;2024-01-30T05:10:55;9.10;99.90
32877;DHT22;19226;51.600;8.034;2024-01-30T05:13:40;9.20;99.90
32877;DHT22;19226;51.600;8.034;2024-01-30T05:16:25;9.10;99.90
32877;DHT22;19226;51.600;8.034;2024-01-30T05:19:10;9.20;99.90
32877;DHT22;19226;51.600;8.034;2024-01-30T05:21:55;9.20;99.90
32877;DHT22;19226;51.600;8.034;2024-01-30T05:24:40;9.20;99.90
32877;DHT22;19226;51.600;8.034;2024-01-30T05:27:24;9.20;99.90
32877;DHT22;19226;51.600;8.034;2024-01-30T05:30:09;9.10;99.90
32877;DHT22;19226;51.600;8.034;2024-01-30T05:32:53;9.10;99.90
32877;DHT22;19226;51.600;8.034;2024-01-30T05:35:38;9.10;99.90
32877;DHT22;19226;51.600;8.034;2024-01-30T05:38:22;9.10;99.90
32877;DHT22;19226;51.600;8.034;2024-01-30T05:41:08;9.10;99.90
32877;DHT22;19226;51.600;8.034;2024-01-30T05:43:53;9.20;99.90
32877;DHT22;19226;51.600;8.034;2024-01-30T05:46:37;9.20;99.90
32877;DHT22;19226;51.600;8.034;2024-01-30T05:49:22;9.20;99.90
32877;DHT22;19226;51.600;8.034;2024-01-30T05:52:06;9.20;99.90
32877;DHT22;19226;51.600;8.034;2024-01-30T05:54:51;9.20;99.90
32877;DHT22;19226;51.600;8.034;2024-01-30T05:57:35;9.20;99.90
32877;DHT22;19226;51.600;8.034;2024-01-30T06:00:21;9.20;99.90
32877;DHT22;19226;51.600;8.034;2024-01-30T06:03:06;9.20;99.90
32877;DHT22;19226;51.600;8.034;2024-01-30T06:05:50;9.20;99.90
32877;DHT22;19226;51.600;8.034;2024-01-30T06:08:35;9.20;99.90
32877;DHT22;19226;51.600;8.034;2024-01-30T06:11:19;9.20;99.90
32877;DHT22;19226;51.600;8.034;2024-01-30T06:14:04;9.20;99.90
32877;DHT22;19226;51.600;8.034;2024-01-30T06:16:48;9.20;99.90
32877;DHT22;19226;51.600;8.034;2024-01-30T06:19:33;9.20;99.90
32877;DHT22;19226;51.600;8.034;2024-01-30T06:22:17;9.30;99.90
32877;DHT22;19226;51.600;8.034;2024-01-30T06:25:02;9.30;99.90
32877;DHT22;19226;51.600;8.034;2024-01-30T06:27:47;9.30;99.90
32877;DHT22;19226;51.600;8.034;2024-01-30T06:30:31;9.30;99.90
32877;DHT22;19226;51.600;8.034;2024-01-30T06:33:16;9.30;99.90
32877;DHT22;19226;51.600;8.034;2024-01-30T06:36:00;9.20;99.90
32877;DHT22;19226;51.600;8.034;2024-01-30T06:38:45;9.20;99.90
32877;DHT22;19226;51.600;8.034;2024-01-30T06:41:30;9.20;99.90
32877;DHT22;19226;51.600;8.034;2024-01-30T06:44:14;9.20;99.90
32877;DHT22;19226;51.600;8.034;2024-01-30T06:46:59;9.20;99.90
32877;DHT22;19226;51.600;8.034;2024-01-30T06:49:43;9.20;99.90
32877;DHT22;19226;51.600;8.034;2024-01-30T06:52:29;9.20;99.90
32877;DHT22;19226;51.600;8.034;2024-01-30T06:55:13;9.20;99.90
32877;DHT22;19226;51.600;8.034;2024-01-30T06:57:58;9.20;99.90
32877;DHT22;19226;51.600;8.034;2024-01-30T07:00:43;9.20;99.90
32877;DHT22;19226;51.600;8.034;2024-01-30T07:03:27;9.20;99.90
32877;DHT22;19226;51.600;8.034;2024-01-30T07:06:12;9.20;99.90
32877;DHT22;19226;51.600;8.034;2024-01-30T07:08:56;9.20;99.90
32877;DHT22;19226;51.600;8.034;2024-01-30T07:11:40;9.20;99.90
32877;DHT22;19226;51.600;8.034;2024-01-30T07:14:25;9.20;99.90
32877;DHT22;19226;51.600;8.034;2024-01-30T07:17:10;9.20;99.90
32877;DHT22;19226;51.600;8.034;2024-01-30T07:19:54;9.30;99.90
32877;DHT22;19226;51.600;8.034;2024-01-30T07:22:40;9.30;99.90
32877;DHT22;19226;51.600;8.034;2024-01-30T07:25:25;9.30;99.90
32877;DHT22;19226;51.600;8.034;2024-01-30T07:28:11;9.30;99.90
32877;DHT22;19226;51.600;8.034;2024-01-30T07:30:56;9.30;99.90
32877;DHT22;19226;51.600;8.034;2024-01-30T07:33:41;9.30;99.90
32877;DHT22;19226;51.600;8.034;2024-01-30T07:36:25;9.30;99.90
32877;DHT22;19226;51.600;8.034;2024-01-30T07:39:10;9.40;99.90
32877;DHT22;19226;51.600;8.034;2024-01-30T07:41:55;9.40;99.90
32877;DHT22;19226;51.600;8.034;2024-01-30T07:44:39;9.40;99.90
32877;DHT22;19226;51.600;8.034;2024-01-30T07:47:24;9.40;99.90
32877;DHT22;19226;51.600;8.034;2024-01-30T07:50:09;9.40;99.90
32877;DHT22;19226;51.600;8.034;2024-01-30T07:52:55;9.40;99.90
32877;DHT22;19226;51.600;8.034;2024-01-30T07:55:39;9.40;99.90
32877;DHT22;19226;51.600;8.034;2024-01-30T07:58:24;9.40;99.90
32877;DHT22;19226;51.600;8.034;2024-01-30T08:01:08;9.40;99.90
32877;DHT22;19226;51.600;8.034;2024-01-30T08:03:55;9.40;99.90
32877;DHT22;19226;51.600;8.034;2024-01-30T08:06:40;9.50;99.90
32877;DHT22;19226;51.600;8.034;2024-01-30T08:09:25;9.50;99.90
32877;DHT22;19226;51.600;8.034;2024-01-30T08:12:09;9.60;99.90
32877;DHT22;19226;51.600;8.034;2024-01-30T08:14:54;9.60;99.90
32877;DHT22;19226;51.600;8.034;2024-01-30T08:17:38;9.70;99.90
32877;DHT22;19226;51.600;8.034;2024-01-30T08:20:23;9.70;99.90
32877;DHT22;19226;51.600;8.034;2024-01-30T08:23:08;9.70;99.90
32877;DHT22;19226;51.600;8.034;2024-01-30T08:25:52;9.80;99.90
32877;DHT22;19226;51.600;8.034;2024-01-30T08:28:37;9.80;99.90
32877;DHT22;19226;51.600;8.034;2024-01-30T08:31:22;9.90;99.90
32877;DHT22;19226;51.600;8.034;2024-01-30T08:34:07;9.90;99.90
32877;DHT22;19226;51.600;8.034;2024-01-30T08:36:51;10.00;99.90
32877;DHT22;19226;51.600;8.034;2024-01-30T08:39:36;10.00;99.90
32877;DHT22;19226;51.600;8.034;2024-01-30T08:42:20;10.00;99.90
32877;DHT22;19226;51.600;8.034;2024-01-30T08:45:07;10.00;99.90
32877;DHT22;19226;51.600;8.034;2024-01-30T08:47:53;10.10;99.90
32877;DHT22;19226;51.600;8.034;2024-01-30T08:50:38;10.10;99.90
32877;DHT22;19226;51.600;8.034;2024-01-30T08:53:22;10.20;99.90
32877;DHT22;19226;51.600;8.034;2024-01-30T08:56:07;10.20;99.90
32877;DHT22;19226;51.600;8.034;2024-01-30T08:58:51;10.20;99.90
32877;DHT22;19226;51.600;8.034;2024-01-30T09:01:36;10.20;99.90
32877;DHT22;19226;51.600;8.034;2024-01-30T09:04:21;10.30;99.90
32877;DHT22;19226;51.600;8.034;2024-01-30T09:07:05;10.30;99.90
32877;DHT22;19226;51.600;8.034;2024-01-30T09:09:53;10.40;99.90
32877;DHT22;19226;51.600;8.034;2024-01-30T09:12:38;10.40;99.90
32877;DHT22;19226;51.600;8.034;2024-01-30T09:15:22;10.40;99.90
32877;DHT22;19226;51.600;8.034;2024-01-30T09:18:07;10.50;99.90
32877;DHT22;19226;51.600;8.034;2024-01-30T09:20:51;10.60;99.90
32877;DHT22;19226;51.600;8.034;2024-01-30T09:23:36;10.60;99.90
32877;DHT22;19226;51.600;8.034;2024-01-30T09:26:20;10.60;99.90
32877;DHT22;19226;51.600;8.034;2024-01-30T09:29:05;10.70;99.90
32877;DHT22;19226;51.600;8.034;2024-01-30T09:31:49;10.70;99.90
32877;DHT22;19226;51.600;8.034;2024-01-30T09:34:34;10.80;99.90
32877;DHT22;19226;51.600;8.034;2024-01-30T09:37:18;10.80;99.90
32877;DHT22;19226;51.600;8.034;2024-01-30T09:40:03;10.90;99.90
32877;DHT22;19226;51.600;8.034;2024-01-30T09:42:50;10.90;99.90
32877;DHT22;19226;51.600;8.034;2024-01-30T09:45:35;11.00;99.90
32877;DHT22;19226;51.600;8.034;2024-01-30T09:48:19;11.00;99.90
32877;DHT22;19226;51.600;8.034;2024-01-30T09:51:04;11.10;99.90
32877;DHT22;19226;51.600;8.034;2024-01-30T09:53:49;11.20;99.90
32877;DHT22;19226;51.600;8.034;2024-01-30T09:56:34;11.30;99.90
32877;DHT22;19226;51.600;8.034;2024-01-30T09:59:18;11.30;99.90
32877;DHT22;19226;51.600;8.034;2024-01-30T10:02:03;11.30;99.90
32877;DHT22;19226;51.600;8.034;2024-01-30T10:04:49;11.40;99.90
32877;DHT22;19226;51.600;8.034;2024-01-30T10:07:34;11.40;99.90
32877;DHT22;19226;51.600;8.034;2024-01-30T10:10:21;11.50;99.90
32877;DHT22;19226;51.600;8.034;2024-01-30T10:13:05;11.50;99.90
32877;DHT22;19226;51.600;8.034;2024-01-30T10:15:50;11.60;99.90
32877;DHT22;19226;51.600;8.034;2024-01-30T10:18:35;11.60;99.90
32877;DHT22;19226;51.600;8.034;2024-01-30T10:21:21;11.60;99.90
32877;DHT22;19226;51.600;8.034;2024-01-30T10:24:06;11.70;99.90
32877;DHT22;19226;51.600;8.034;2024-01-30T10:26:50;11.70;99.90
32877;DHT22;19226;51.600;8.034;2024-01-30T10:29:37;11.80;99.90
32877;DHT22;19226;51.600;8.034;2024-01-30T10:32:21;11.90;99.90
32877;DHT22;19226;51.600;8.034;2024-01-30T10:35:06;11.90;99.90
32877;DHT22;19226;51.600;8.034;2024-01-30T10:37:51;12.00;99.90
32877;DHT22;19226;51.600;8.034;2024-01-30T10:40:38;12.00;99.90
32877;DHT22;19226;51.600;8.034;2024-01-30T10:43:29;12.00;99.90
32877;DHT22;19226;51.600;8.034;2024-01-30T10:46:19;12.00;99.90
32877;DHT22;19226;51.600;8.034;2024-01-30T10:49:05;12.00;99.90
32877;DHT22;19226;51.600;8.034;2024-01-30T10:51:51;12.10;99.90
32877;DHT22;19226;51.600;8.034;2024-01-30T10:54:37;12.20;99.90
32877;DHT22;19226;51.600;8.034;2024-01-30T10:57:24;12.30;99.90
32877;DHT22;19226;51.600;8.034;2024-01-30T11:00:11;12.30;99.90
32877;DHT22;19226;51.600;8.034;2024-01-30T11:02:57;12.50;99.90
32877;DHT22;19226;51.600;8.034;2024-01-30T11:05:41;12.60;99.90
32877;DHT22;19226;51.600;8.034;2024-01-30T11:08:26;12.60;99.90
32877;DHT22;19226;51.600;8.034;2024-01-30T11:11:12;12.70;99.90
32877;DHT22;19226;51.600;8.034;2024-01-30T11:14:00;12.70;99.90
32877;DHT22;19226;51.600;8.034;2024-01-30T11:16:45;12.80;99.90
32877;DHT22;19226;51.600;8.034;2024-01-30T11:19:31;12.90;99.90
32877;DHT22;19226;51.600;8.034;2024-01-30T11:22:20;12.90;99.90
32877;DHT22;19226;51.600;8.034;2024-01-30T11:25:05;12.90;99.90
32877;DHT22;19226;51.600;8.034;2024-01-30T11:27:52;12.90;99.90
32877;DHT22;19226;51.600;8.034;2024-01-30T11:30:37;13.00;99.90
32877;DHT22;19226;51.600;8.034;2024-01-30T11:33:29;13.00;99.90
32877;DHT22;19226;51.600;8.034;2024-01-30T11:36:15;13.10;99.90
32877;DHT22;19226;51.600;8.034;2024-01-30T11:43:07;13.10;99.90
32877;DHT22;19226;51.600;8.034;2024-01-30T11:45:53;13.20;99.90
32877;DHT22;19226;51.600;8.034;2024-01-30T11:48:37;13.20;99.90
32877;DHT22;19226;51.600;8.034;2024-01-30T11:51:22;13.20;99.90
32877;DHT22;19226;51.600;8.034;2024-01-30T11:54:07;13.30;99.90
32877;DHT22;19226;51.600;8.034;2024-01-30T11:56:52;13.40;99.90
32877;DHT22;19226;51.600;8.034;2024-01-30T11:59:36;13.50;99.90
32877;DHT22;19226;51.600;8.034;2024-01-30T12:02:20;13.60;99.90
32877;DHT22;19226;51.600;8.034;2024-01-30T12:05:08;13.70;99.90
32877;DHT22;19226;51.600;8.034;2024-01-30T12:07:56;13.70;99.90
32877;DHT22;19226;51.600;8.034;2024-01-30T12:10:43;13.80;99.90
32877;DHT22;19226;51.600;8.034;2024-01-30T12:13:28;13.80;99.90
32877;DHT22;19226;51.600;8.034;2024-01-30T12:16:28;13.80;99.90
32877;DHT22;19226;51.600;8.034;2024-01-30T12:19:24;13.80;99.90
32877;DHT22;19226;51.600;8.034;2024-01-30T12:22:10;13.80;99.90
32877;DHT22;19226;51.600;8.034;2024-01-30T12:24:55;13.80;99.90
32877;DHT22;19226;51.600;8.034;2024-01-30T12:27:42;13.90;99.90
32877;DHT22;19226;51.600;8.034;2024-01-30T12:30:27;13.90;99.90
32877;DHT22;19226;51.600;8.034;2024-01-30T12:33:17;14.00;99.90
32877;DHT22;19226;51.600;8.034;2024-01-30T12:36:02;14.00;99.90
32877;DHT22;19226;51.600;8.034;2024-01-30T12:38:47;14.00;99.90
32877;DHT22;19226;51.600;8.034;2024-01-30T12:41:31;14.00;99.90
32877;DHT22;19226;51.600;8.034;2024-01-30T12:44:17;14.10;99.90
32877;DHT22;19226;51.600;8.034;2024-01-30T12:47:04;14.10;99.90
32877;DHT22;19226;51.600;8.034;2024-01-30T12:49:49;14.10;99.90
32877;DHT22;19226;51.600;8.034;2024-01-30T12:52:37;14.10;99.90
32877;DHT22;19226;51.600;8.034;2024-01-30T12:55:22;14.10;99.90
32877;DHT22;19226;51.600;8.034;2024-01-30T12:58:06;14.20;99.90
32877;DHT22;19226;51.600;8.034;2024-01-30T13:00:51;14.20;99.90
32877;DHT22;19226;51.600;8.034;2024-01-30T13:03:36;14.20;99.90
32877;DHT22;19226;51.600;8.034;2024-01-30T13:06:20;14.20;99.90
32877;DHT22;19226;51.600;8.034;2024-01-30T13:09:06;14.20;99.90
32877;DHT22;19226;51.600;8.034;2024-01-30T13:11:51;14.30;99.90
32877;DHT22;19226;51.600;8.034;2024-01-30T13:14:36;14.30;99.90
32877;DHT22;19226;51.600;8.034;2024-01-30T13:17:20;14.30;99.90
32877;DHT22;19226;51.600;8.034;2024-01-30T13:20:06;14.30;99.90
32877;DHT22;19226;51.600;8.034;2024-01-30T13:22:52;14.30;99.90
32877;DHT22;19226;51.600;8.034;2024-01-30T13:25:37;14.20;99.90
32877;DHT22;19226;51.600;8.034;2024-01-30T13:28:21;14.20;99.90
32877;DHT22;19226;51.600;8.034;2024-01-30T13:31:07;14.20;99.90
32877;DHT22;19226;51.600;8.034;2024-01-30T13:33:52;14.20;99.90
32877;DHT22;19226;51.600;8.034;2024-01-30T13:36:36;14.20;99.90
32877;DHT22;19226;51.600;8.034;2024-01-30T13:39:21;14.20;99.90
32877;DHT22;19226;51.600;8.034;2024-01-30T13:42:05;14.20;99.90
32877;DHT22;19226;51.600;8.034;2024-01-30T13:44:50;14.10;99.90
32877;DHT22;19226;51.600;8.034;2024-01-30T13:47:34;14.10;99.90
32877;DHT22;19226;51.600;8.034;2024-01-30T13:50:19;14.10;99.90
32877;DHT22;19226;51.600;8.034;2024-01-30T13:53:04;14.10;99.90
32877;DHT22;19226;51.600;8.034;2024-01-30T13:55:48;14.00;99.90
32877;DHT22;19226;51.600;8.034;2024-01-30T13:58:33;14.00;99.90
32877;DHT22;19226;51.600;8.034;2024-01-30T14:01:19;13.90;99.90
32877;DHT22;19226;51.600;8.034;2024-01-30T14:04:03;13.80;99.90
32877;DHT22;19226;51.600;8.034;2024-01-30T14:06:48;13.80;99.90
32877;DHT22;19226;51.600;8.034;2024-01-30T14:09:32;13.80;99.90
32877;DHT22;19226;51.600;8.034;2024-01-30T14:12:18;13.70;99.90
32877;DHT22;19226;51.600;8.034;2024-01-30T14:15:02;13.60;99.90
32877;DHT22;19226;51.600;8.034;2024-01-30T14:17:47;13.60;99.90
32877;DHT22;19226;51.600;8.034;2024-01-30T14:20:32;13.60;99.90
32877;DHT22;19226;51.600;8.034;2024-01-30T14:23:17;13.50;99.90
32877;DHT22;19226;51.600;8.034;2024-01-30T14:26:02;13.50;99.90
32877;DHT22;19226;51.600;8.034;2024-01-30T14:28:46;13.50;99.90
32877;DHT22;19226;51.600;8.034;2024-01-30T14:31:31;13.50;99.90
32877;DHT22;19226;51.600;8.034;2024-01-30T14:34:16;13.50;99.90
32877;DHT22;19226;51.600;8.034;2024-01-30T14:37:01;13.50;99.90
32877;DHT22;19226;51.600;8.034;2024-01-30T14:39:46;13.40;99.90
32877;DHT22;19226;51.600;8.034;2024-01-30T14:42:31;13.40;99.90
32877;DHT22;19226;51.600;8.034;2024-01-30T14:45:16;13.30;99.90
32877;DHT22;19226;51.600;8.034;2024-01-30T14:48:00;13.30;99.90
32877;DHT22;19226;51.600;8.034;2024-01-30T14:50:45;13.20;99.90
32877;DHT22;19226;51.600;8.034;2024-01-30T14:53:30;13.20;99.90
32877;DHT22;19226;51.600;8.034;2024-01-30T14:56:15;13.20;99.90
32877;DHT22;19226;51.600;8.034;2024-01-30T14:59:00;13.20;99.90
32877;DHT22;19226;51.600;8.034;2024-01-30T15:01:44;13.20;99.90
32877;DHT22;19226;51.600;8.034;2024-01-30T15:04:29;13.10;99.90
32877;DHT22;19226;51.600;8.034;2024-01-30T15:07:14;13.10;99.90
32877;DHT22;19226;51.600;8.034;2024-01-30T15:09:58;13.10;99.90
32877;DHT22;19226;51.600;8.034;2024-01-30T15:12:43;13.10;99.90
32877;DHT22;19226;51.600;8.034;2024-01-30T15:15:28;13.10;99.90
32877;DHT22;19226;51.600;8.034;2024-01-30T15:18:14;13.10;99.90
32877;DHT22;19226;51.600;8.034;2024-01-30T15:20:58;13.10;99.90
32877;DHT22;19226;51.600;8.034;2024-01-30T15:23:43;13.10;99.90
32877;DHT22;19226;51.600;8.034;2024-01-30T15:26:28;13.10;99.90
32877;DHT22;19226;51.600;8.034;2024-01-30T15:29:12;13.10;99.90
32877;DHT22;19226;51.600;8.034;2024-01-30T15:31:57;13.10;99.90
32877;DHT22;19226;51.600;8.034;2024-01-30T15:34:42;13.10;99.90
32877;DHT22;19226;51.600;8.034;2024-01-30T15:37:27;13.10;99.90
32877;DHT22;19226;51.600;8.034;2024-01-30T15:40:12;13.10;99.90
32877;DHT22;19226;51.600;8.034;2024-01-30T15:42:56;13.00;99.90
32877;DHT22;19226;51.600;8.034;2024-01-30T15:45:41;13.00;99.90
32877;DHT22;19226;51.600;8.034;2024-01-30T15:48:26;13.00;99.90
32877;DHT22;19226;51.600;8.034;2024-01-30T15:51:11;13.00;99.90
32877;DHT22;19226;51.600;8.034;2024-01-30T15:53:58;12.90;99.90
32877;DHT22;19226;51.600;8.034;2024-01-30T15:56:42;12.90;99.90
32877;DHT22;19226;51.600;8.034;2024-01-30T15:59:27;12.90;99.90
32877;DHT22;19226;51.600;8.034;2024-01-30T16:02:12;12.80;99.90
32877;DHT22;19226;51.600;8.034;2024-01-30T16:04:58;12.90;99.90
32877;DHT22;19226;51.600;8.034;2024-01-30T16:07:42;12.80;99.90
32877;DHT22;19226;51.600;8.034;2024-01-30T16:10:27;12.70;99.90
32877;DHT22;19226;51.600;8.034;2024-01-30T16:13:11;12.70;99.90
32877;DHT22;19226;51.600;8.034;2024-01-30T16:15:56;12.70;99.90
32877;DHT22;19226;51.600;8.034;2024-01-30T16:18:48;12.70;99.90
32877;DHT22;19226;51.600;8.034;2024-01-30T16:21:33;12.70;99.90
32877;DHT22;19226;51.600;8.034;2024-01-30T16:24:17;12.70;99.90
32877;DHT22;19226;51.600;8.034;2024-01-30T16:27:04;12.60;99.90
32877;DHT22;19226;51.600;8.034;2024-01-30T16:29:48;12.60;99.90
32877;DHT22;19226;51.600;8.034;2024-01-30T16:32:33;12.50;99.90
32877;DHT22;19226;51.600;8.034;2024-01-30T16:35:17;12.50;99.90
32877;DHT22;19226;51.600;8.034;2024-01-30T16:38:02;12.50;99.90
32877;DHT22;19226;51.600;8.034;2024-01-30T16:40:47;12.40;99.90
32877;DHT22;19226;51.600;8.034;2024-01-30T16:43:32;12.40;99.90
32877;DHT22;19226;51.600;8.034;2024-01-30T16:46:16;12.40;99.90
32877;DHT22;19226;51.600;8.034;2024-01-30T16:49:01;12.40;99.90
32877;DHT22;19226;51.600;8.034;2024-01-30T16:51:47;12.50;99.90
32877;DHT22;19226;51.600;8.034;2024-01-30T16:54:31;12.40;99.90
32877;DHT22;19226;51.600;8.034;2024-01-30T16:57:16;12.40;99.90
32877;DHT22;19226;51.600;8.034;2024-01-30T17:00:00;12.30;99.90
32877;DHT22;19226;51.600;8.034;2024-01-30T17:02:45;12.30;99.90
32877;DHT22;19226;51.600;8.034;2024-01-30T17:05:30;12.30;99.90
32877;DHT22;19226;51.600;8.034;2024-01-30T17:08:15;12.20;99.90
32877;DHT22;19226;51.600;8.034;2024-01-30T17:10:59;12.20;99.90
32877;DHT22;19226;51.600;8.034;2024-01-30T17:13:44;12.10;99.90
32877;DHT22;19226;51.600;8.034;2024-01-30T17:16:28;12.10;99.90
32877;DHT22;19226;51.600;8.034;2024-01-30T17:19:12;12.10;99.90
32877;DHT22;19226;51.600;8.034;2024-01-30T17:21:57;12.00;99.90
32877;DHT22;19226;51.600;8.034;2024-01-30T17:24:42;11.90;99.90
32877;DHT22;19226;51.600;8.034;2024-01-30T17:27:27;11.90;99.90
32877;DHT22;19226;51.600;8.034;2024-01-30T17:30:12;11.80;99.90
32877;DHT22;19226;51.600;8.034;2024-01-30T17:32:58;11.80;99.90
32877;DHT22;19226;51.600;8.034;2024-01-30T17:35:43;11.70;99.90